Time;durP1;ratioP1;P1;durP2;ratioP2;P2;SDS_P1;SDS_P2;PMS_P1;PMS_P2;Temp;Humidity;BMP_temperature;BMP_pressure;BME280_temperature;BME280_humidity;BME280_pressure;Samples;Min_cycle;Max_cycle;Signal;HPM_P1;HPM_P2
2022/03/28 00:02:20;;;;;;;75.30;28.88;;;4.60;99.90;;;;;;4996584;28;20061;-76
2022/03/28 00:04:47;;;;;;;74.97;28.90;;;4.80;99.90;;;;;;4983973;28;20061;-75
2022/03/28 00:07:14;;;;;;;70.20;28.02;;;4.70;99.90;;;;;;5017331;28;20066;-76
2022/03/28 00:09:41;;;;;;;71.20;27.95;;;4.70;99.90;;;;;;4962933;23;20460;-72
2022/03/28 00:12:08;;;;;;;73.65;28.45;;;4.70;99.90;;;;;;5004191;28;20137;-72
2022/03/28 00:14:35;;;;;;;74.72;28.85;;;4.70;99.90;;;;;;4966638;28;20054;-72
2022/03/28 00:17:02;;;;;;;79.78;28.65;;;4.60;99.90;;;;;;4981763;28;20100;-72
2022/03/28 00:19:28;;;;;;;61.17;25.65;;;4.60;99.90;;;;;;4986469;28;20465;-72
2022/03/28 00:21:56;;;;;;;64.45;27.70;;;4.50;99.90;;;;;;5001049;28;20053;-72
2022/03/28 00:24:23;;;;;;;64.55;27.15;;;4.50;99.90;;;;;;4992778;28;20270;-72
2022/03/28 00:26:50;;;;;;;58.65;27.88;;;4.40;99.90;;;;;;5003992;28;20124;-72
2022/03/28 00:29:17;;;;;;;53.13;24.48;;;4.30;99.90;;;;;;4988103;28;20080;-71
2022/03/28 00:31:44;;;;;;;62.92;27.00;;;4.30;99.90;;;;;;5002554;28;20113;-72
2022/03/28 00:34:11;;;;;;;56.53;26.38;;;4.30;99.90;;;;;;4969685;28;20152;-72
2022/03/28 00:36:37;;;;;;;54.10;26.85;;;4.20;99.90;;;;;;5002666;28;20085;-72
2022/03/28 00:39:04;;;;;;;66.72;27.83;;;4.10;99.90;;;;;;4984474;28;20323;-72
2022/03/28 00:41:31;;;;;;;66.22;27.58;;;4.20;99.90;;;;;;4992129;28;20069;-72
2022/03/28 00:43:59;;;;;;;70.88;24.60;;;4.20;99.90;;;;;;4991881;28;20430;-72
2022/03/28 00:46:27;;;;;;;72.78;26.35;;;4.40;99.90;;;;;;4985717;28;20070;-72
2022/03/28 00:48:54;;;;;;;70.03;26.70;;;4.30;99.90;;;;;;4995101;28;20052;-72
2022/03/28 00:51:22;;;;;;;69.55;24.85;;;4.20;99.90;;;;;;5022358;28;20053;-72
2022/03/28 00:53:50;;;;;;;66.85;25.90;;;4.30;99.90;;;;;;4998370;28;20042;-72
2022/03/28 00:56:18;;;;;;;65.93;24.55;;;4.20;99.90;;;;;;5004162;28;20108;-72
2022/03/28 00:58:45;;;;;;;57.25;24.27;;;4.10;99.90;;;;;;4965624;28;20326;-72
2022/03/28 01:01:12;;;;;;;59.50;27.35;;;4.00;99.90;;;;;;4999084;28;20585;-72
2022/03/28 01:03:40;;;;;;;61.75;24.90;;;4.00;99.90;;;;;;5003101;28;20084;-72
2022/03/28 01:06:07;;;;;;;59.80;25.58;;;4.00;99.90;;;;;;4983330;28;20124;-72
2022/03/28 01:08:35;;;;;;;63.65;25.77;;;3.90;99.90;;;;;;5002247;28;20702;-72
2022/03/28 01:11:08;;;;;;;56.67;25.23;;;3.70;99.90;;;;;;5007551;28;20333;-71
2022/03/28 01:13:36;;;;;;;51.13;25.00;;;3.80;99.90;;;;;;4996024;28;20046;-72
2022/03/28 01:16:04;;;;;;;59.08;24.85;;;3.80;99.90;;;;;;5023421;28;20069;-72
2022/03/28 01:18:31;;;;;;;63.20;26.75;;;3.80;99.90;;;;;;5004871;28;20104;-72
2022/03/28 01:21:03;;;;;;;59.35;25.73;;;3.80;99.90;;;;;;4983426;28;20053;-72
2022/03/28 01:23:29;;;;;;;53.67;24.83;;;3.70;99.90;;;;;;5001578;28;20085;-72
2022/03/28 01:25:57;;;;;;;58.28;25.50;;;3.70;99.90;;;;;;5003706;28;20061;-72
2022/03/28 01:28:27;;;;;;;52.50;23.92;;;3.70;99.90;;;;;;5001319;28;20114;-71
2022/03/28 01:30:55;;;;;;;59.47;26.10;;;3.70;99.90;;;;;;4982298;28;20203;-72
2022/03/28 01:33:22;;;;;;;56.38;24.55;;;3.60;99.90;;;;;;5001856;28;20069;-71
2022/03/28 01:35:49;;;;;;;51.95;25.95;;;3.60;99.90;;;;;;5001138;28;20121;-72
2022/03/28 01:38:19;;;;;;;54.60;26.40;;;3.60;99.90;;;;;;4984359;28;20577;-72
2022/03/28 01:40:48;;;;;;;54.63;25.35;;;3.60;99.90;;;;;;4986083;28;20289;-72
2022/03/28 01:43:16;;;;;;;61.35;25.60;;;3.80;99.90;;;;;;5005443;28;20058;-73
2022/03/28 01:45:43;;;;;;;68.03;27.58;;;3.90;99.90;;;;;;4984032;28;20543;-72
2022/03/28 01:48:11;;;;;;;69.13;24.95;;;4.00;99.90;;;;;;5003886;28;20311;-72
2022/03/28 01:50:39;;;;;;;65.03;25.05;;;4.10;99.90;;;;;;5002760;28;20103;-72
2022/03/28 01:53:07;;;;;;;71.80;23.88;;;4.20;99.90;;;;;;5005701;28;20346;-72
2022/03/28 01:55:33;;;;;;;79.82;25.15;;;4.20;99.90;;;;;;4985476;28;20639;-72
2022/03/28 01:58:00;;;;;;;70.32;23.48;;;4.20;99.90;;;;;;5000379;28;20084;-72
2022/03/28 02:00:28;;;;;;;60.45;22.00;;;4.20;99.90;;;;;;5000185;28;20045;-72
2022/03/28 02:02:56;;;;;;;54.70;19.75;;;4.00;99.90;;;;;;4983516;28;20474;-72
2022/03/28 02:05:23;;;;;;;59.10;21.95;;;3.90;99.90;;;;;;4999368;28;20635;-72
2022/03/28 02:07:50;;;;;;;50.88;22.13;;;3.80;99.90;;;;;;4999282;28;20033;-72
2022/03/28 02:10:20;;;;;;;53.85;21.00;;;3.80;99.90;;;;;;4998798;28;20153;-72
2022/03/28 02:12:48;;;;;;;52.38;22.05;;;3.70;99.90;;;;;;4991288;28;20500;-72
2022/03/28 02:15:16;;;;;;;67.05;24.15;;;3.50;99.90;;;;;;4981879;28;20133;-72
2022/03/28 02:17:43;;;;;;;58.38;23.60;;;3.40;99.90;;;;;;5000905;28;20060;-72
2022/03/28 02:20:11;;;;;;;53.25;23.52;;;3.40;99.90;;;;;;4965993;28;20520;-72
2022/03/28 02:22:40;;;;;;;47.08;22.98;;;3.30;99.90;;;;;;4999150;28;20111;-72
2022/03/28 02:25:09;;;;;;;51.40;23.30;;;3.30;99.90;;;;;;5000014;28;20243;-72
2022/03/28 02:27:36;;;;;;;53.67;23.38;;;3.20;99.90;;;;;;4999929;28;20046;-72
2022/03/28 02:30:07;;;;;;;57.35;23.33;;;3.20;99.90;;;;;;4968862;28;20065;-72
2022/03/28 02:32:34;;;;;;;69.88;25.38;;;3.30;99.90;;;;;;4999491;28;20054;-72
2022/03/28 02:35:04;;;;;;;60.28;24.58;;;3.40;99.90;;;;;;4982388;28;20034;-72
2022/03/28 02:37:31;;;;;;;67.60;23.85;;;3.60;99.90;;;;;;4999996;28;20054;-72
2022/03/28 02:39:57;;;;;;;67.10;24.45;;;3.70;99.90;;;;;;4981691;28;20081;-72
2022/03/28 02:42:24;;;;;;;66.10;24.92;;;3.80;99.90;;;;;;5007454;28;20050;-72
2022/03/28 02:44:52;;;;;;;67.25;24.83;;;3.60;99.90;;;;;;5019083;28;20053;-72
2022/03/28 02:47:19;;;;;;;74.65;23.77;;;3.40;99.90;;;;;;5006842;28;20049;-72
2022/03/28 02:49:47;;;;;;;74.95;24.17;;;3.50;99.90;;;;;;4983376;28;20056;-72
2022/03/28 02:52:14;;;;;;;76.43;24.95;;;3.70;99.90;;;;;;4981581;28;20057;-72
2022/03/28 02:54:40;;;;;;;76.70;26.38;;;3.80;99.90;;;;;;4998880;28;20088;-72
2022/03/28 02:57:07;;;;;;;80.40;26.45;;;3.80;99.90;;;;;;5001423;28;20597;-72
2022/03/28 02:59:34;;;;;;;81.35;27.02;;;3.80;99.90;;;;;;4999159;28;20453;-72
2022/03/28 03:02:02;;;;;;;73.20;26.13;;;3.80;99.90;;;;;;4999482;28;20077;-72
2022/03/28 03:04:31;;;;;;;70.95;25.15;;;3.60;99.90;;;;;;4980997;28;20314;-72
2022/03/28 03:06:58;;;;;;;88.30;27.48;;;3.70;99.90;;;;;;4981405;28;20156;-72
2022/03/28 03:09:26;;;;;;;81.97;26.73;;;3.60;99.90;;;;;;4981727;28;20048;-72
2022/03/28 03:11:53;;;;;;;68.28;25.02;;;3.70;99.90;;;;;;5007113;28;20127;-72
2022/03/28 03:14:19;;;;;;;67.65;24.55;;;3.60;99.90;;;;;;4997529;28;20084;-72
2022/03/28 03:16:46;;;;;;;63.65;23.27;;;3.50;99.90;;;;;;5001317;28;20076;-72
2022/03/28 03:19:13;;;;;;;65.53;24.77;;;3.40;99.90;;;;;;5001569;28;20187;-72
2022/03/28 03:21:40;;;;;;;58.63;23.35;;;3.40;99.90;;;;;;5001478;28;20088;-72
2022/03/28 03:24:06;;;;;;;60.50;23.15;;;3.30;99.90;;;;;;5009468;28;20069;-72
2022/03/28 03:26:33;;;;;;;71.95;26.98;;;3.30;99.90;;;;;;5002280;28;20578;-72
2022/03/28 03:29:00;;;;;;;70.35;26.02;;;3.30;99.90;;;;;;4999137;28;20141;-72
2022/03/28 03:31:27;;;;;;;65.20;25.55;;;3.40;99.90;;;;;;5005073;28;20057;-72
2022/03/28 03:33:54;;;;;;;74.47;26.40;;;3.30;99.90;;;;;;4982489;28;20668;-72
2022/03/28 03:36:21;;;;;;;80.55;25.33;;;3.50;99.90;;;;;;4981418;28;20109;-72
2022/03/28 03:38:48;;;;;;;72.68;26.70;;;3.60;99.90;;;;;;4980642;28;20045;-72
2022/03/28 03:41:14;;;;;;;71.40;24.80;;;3.70;99.90;;;;;;5005875;28;20111;-72
2022/03/28 03:43:41;;;;;;;71.43;25.88;;;3.60;99.90;;;;;;5011418;28;20128;-72
2022/03/28 03:46:08;;;;;;;84.18;26.90;;;3.50;99.90;;;;;;5002820;28;20038;-72
2022/03/28 03:48:35;;;;;;;88.15;28.52;;;3.60;99.90;;;;;;5005464;28;20041;-73
2022/03/28 03:51:02;;;;;;;65.60;24.50;;;3.60;99.90;;;;;;5018020;28;20136;-73
2022/03/28 03:53:28;;;;;;;58.15;24.73;;;3.60;99.90;;;;;;4999272;28;20062;-72
2022/03/28 03:55:55;;;;;;;56.15;24.67;;;3.40;99.90;;;;;;5004345;28;20046;-72
2022/03/28 03:58:22;;;;;;;52.28;23.08;;;3.30;99.90;;;;;;4993074;28;20143;-72
2022/03/28 04:00:49;;;;;;;51.58;23.77;;;3.20;99.90;;;;;;4984044;28;20119;-72
2022/03/28 04:03:16;;;;;;;58.13;26.63;;;3.10;99.90;;;;;;4985180;28;20568;-72
2022/03/28 04:05:43;;;;;;;61.95;27.38;;;3.00;99.90;;;;;;4983712;28;20038;-72
2022/03/28 04:08:10;;;;;;;54.55;25.67;;;2.90;99.90;;;;;;5001815;28;20085;-72
2022/03/28 04:10:36;;;;;;;61.33;25.40;;;2.90;99.90;;;;;;4986799;28;20079;-72
2022/03/28 04:13:03;;;;;;;52.80;26.25;;;2.90;99.90;;;;;;4992137;28;20226;-72
2022/03/28 04:15:30;;;;;;;53.85;27.63;;;2.90;99.90;;;;;;5002569;28;20073;-72
2022/03/28 04:17:57;;;;;;;54.72;27.50;;;2.90;99.90;;;;;;4985689;28;20124;-72
2022/03/28 04:20:25;;;;;;;60.65;27.52;;;2.90;99.90;;;;;;4983964;28;20519;-72
2022/03/28 04:22:52;;;;;;;63.97;29.27;;;2.90;99.90;;;;;;4984815;28;20119;-73
2022/03/28 04:25:19;;;;;;;70.57;28.85;;;3.00;99.90;;;;;;5003880;28;20081;-72
2022/03/28 04:27:46;;;;;;;65.43;26.70;;;3.00;99.90;;;;;;4987432;28;20041;-72
2022/03/28 04:30:13;;;;;;;62.53;26.70;;;3.00;99.90;;;;;;5000562;28;20042;-72
2022/03/28 04:32:41;;;;;;;57.17;26.35;;;3.00;99.90;;;;;;5002597;28;20074;-72
2022/03/28 04:35:10;;;;;;;53.08;27.40;;;3.00;99.90;;;;;;5000769;28;20376;-72
2022/03/28 04:37:38;;;;;;;57.17;27.10;;;3.00;99.90;;;;;;5001306;28;20483;-72
2022/03/28 04:40:09;;;;;;;62.83;28.67;;;2.90;99.90;;;;;;5000928;28;20104;-72
2022/03/28 04:42:36;;;;;;;69.05;29.80;;;2.90;99.90;;;;;;5011490;28;20108;-72
2022/03/28 04:45:05;;;;;;;59.30;27.38;;;2.90;99.90;;;;;;4985079;28;20232;-72
2022/03/28 04:47:32;;;;;;;67.28;27.65;;;3.00;99.90;;;;;;5002236;28;20092;-72
2022/03/28 04:49:59;;;;;;;79.10;30.10;;;3.20;99.90;;;;;;5002368;28;20069;-72
2022/03/28 04:52:27;;;;;;;94.57;31.65;;;3.30;99.90;;;;;;4968003;28;20566;-72
2022/03/28 04:54:54;;;;;;;69.03;25.50;;;3.30;99.90;;;;;;5000061;28;20046;-72
2022/03/28 04:57:21;;;;;;;77.45;28.35;;;3.30;99.90;;;;;;5000684;28;20525;-72
2022/03/28 04:59:47;;;;;;;77.00;27.60;;;3.20;99.90;;;;;;4999089;28;20609;-72
2022/03/28 05:02:14;;;;;;;69.68;29.08;;;3.20;99.90;;;;;;4999491;28;20077;-72
2022/03/28 05:04:41;;;;;;;88.55;31.95;;;3.10;99.90;;;;;;5001077;28;20053;-72
2022/03/28 05:07:08;;;;;;;86.15;31.73;;;3.10;99.90;;;;;;5000112;28;20107;-72
2022/03/28 05:09:35;;;;;;;78.07;29.30;;;3.20;99.90;;;;;;4999979;28;20045;-72
2022/03/28 05:12:02;;;;;;;80.80;28.75;;;3.10;99.90;;;;;;5008641;28;20073;-72
2022/03/28 05:14:29;;;;;;;122.20;35.47;;;3.30;99.90;;;;;;5002856;28;20077;-72
2022/03/28 05:16:56;;;;;;;89.88;32.28;;;3.60;99.90;;;;;;5000928;28;20052;-73
2022/03/28 05:19:22;;;;;;;74.13;28.85;;;3.40;99.90;;;;;;5001149;28;20081;-72
2022/03/28 05:21:49;;;;;;;81.78;32.17;;;3.40;99.90;;;;;;5000879;28;20132;-72
2022/03/28 05:24:16;;;;;;;74.63;31.00;;;3.30;99.90;;;;;;4968294;28;20289;-72
2022/03/28 05:26:43;;;;;;;65.45;29.40;;;3.20;99.90;;;;;;5003393;28;20497;-72
2022/03/28 05:29:10;;;;;;;75.90;29.42;;;3.20;99.90;;;;;;5001050;28;20053;-72
2022/03/28 05:31:37;;;;;;;75.72;29.58;;;3.20;99.90;;;;;;5001710;28;20136;-72
2022/03/28 05:34:03;;;;;;;72.57;30.50;;;3.30;99.90;;;;;;4967537;28;20285;-72
2022/03/28 05:36:30;;;;;;;81.72;30.33;;;3.40;99.90;;;;;;5000757;28;20532;-72
2022/03/28 05:38:58;;;;;;;81.38;29.88;;;3.50;99.90;;;;;;5001092;28;20053;-72
2022/03/28 05:41:25;;;;;;;66.40;27.33;;;3.60;99.90;;;;;;4989896;28;20049;-72
2022/03/28 05:43:51;;;;;;;66.90;28.80;;;3.50;99.90;;;;;;5013638;28;20553;-72
2022/03/28 05:46:18;;;;;;;67.43;27.35;;;3.40;99.90;;;;;;5007164;28;20394;-72
2022/03/28 05:48:52;;;;;;;65.03;28.48;;;3.40;99.90;;;;;;5008832;28;20053;-72
2022/03/28 05:51:18;;;;;;;63.40;27.55;;;3.40;99.90;;;;;;5002414;28;20111;-72
2022/03/28 05:53:45;;;;;;;56.90;28.50;;;3.40;99.90;;;;;;4996178;28;20112;-72
2022/03/28 05:56:12;;;;;;;56.35;28.77;;;3.40;99.90;;;;;;4983210;28;20116;-72
2022/03/28 05:58:39;;;;;;;61.00;27.60;;;3.40;99.90;;;;;;5001152;28;20081;-72
2022/03/28 06:01:06;;;;;;;59.85;28.42;;;3.40;99.90;;;;;;4981662;28;20121;-72
2022/03/28 06:03:33;;;;;;;62.15;28.58;;;3.40;99.90;;;;;;4982288;28;20064;-72
2022/03/28 06:06:03;;;;;;;67.50;30.08;;;3.40;99.90;;;;;;4966234;28;20241;-72
2022/03/28 06:08:34;;;;;;;60.63;27.13;;;3.50;99.90;;;;;;4982241;28;20049;-73
2022/03/28 06:11:04;;;;;;;59.65;28.98;;;3.60;99.90;;;;;;4989539;22;20050;-69
2022/03/28 06:13:31;;;;;;;70.35;30.80;;;3.80;99.90;;;;;;4973728;28;20565;-69
2022/03/28 06:15:59;;;;;;;68.93;29.10;;;3.80;99.90;;;;;;4972658;28;20050;-69
2022/03/28 06:18:27;;;;;;;68.32;29.73;;;3.90;99.90;;;;;;4973431;28;20050;-69
2022/03/28 06:20:53;;;;;;;66.57;27.83;;;4.00;99.90;;;;;;4972109;28;20756;-69
2022/03/28 06:23:20;;;;;;;60.13;27.77;;;4.20;99.90;;;;;;4964703;28;20051;-69
2022/03/28 06:25:47;;;;;;;59.15;26.52;;;4.30;99.90;;;;;;4970595;28;20038;-69
2022/03/28 06:28:15;;;;;;;62.70;25.73;;;4.50;99.90;;;;;;4965640;28;20051;-69
2022/03/28 06:30:42;;;;;;;68.88;27.02;;;4.50;99.90;;;;;;4949487;28;20113;-69
2022/03/28 06:33:10;;;;;;;80.07;28.90;;;4.70;99.90;;;;;;4965087;28;20096;-69
2022/03/28 06:35:39;;;;;;;63.33;27.08;;;4.70;99.90;;;;;;4954471;28;20555;-69
2022/03/28 06:38:06;;;;;;;76.35;29.08;;;4.80;99.90;;;;;;4971734;28;20086;-68
2022/03/28 06:40:34;;;;;;;74.32;28.90;;;4.80;99.90;;;;;;4971673;28;20654;-68
2022/03/28 06:43:01;;;;;;;69.80;28.77;;;4.90;99.90;;;;;;4972279;28;20991;-68
2022/03/28 06:45:28;;;;;;;62.83;27.00;;;4.90;99.90;;;;;;4954983;28;20117;-68
2022/03/28 06:47:56;;;;;;;60.53;29.60;;;5.00;99.90;;;;;;4956207;28;20169;-68
2022/03/28 06:50:42;;;;;;;63.92;28.10;;;5.10;99.90;;;;;;4962806;28;20061;-68
2022/03/28 06:53:09;;;;;;;91.03;35.70;;;5.30;99.90;;;;;;4955485;28;20506;-69
2022/03/28 06:55:36;;;;;;;77.55;31.50;;;5.50;99.90;;;;;;4971328;28;20847;-68
2022/03/28 06:58:03;;;;;;;86.43;32.92;;;5.80;99.90;;;;;;4966069;28;20066;-68
2022/03/28 07:00:32;;;;;;;81.53;33.00;;;6.30;99.90;;;;;;4971065;28;20133;-68
2022/03/28 07:02:59;;;;;;;77.72;32.78;;;6.50;99.90;;;;;;4971462;28;20657;-68
2022/03/28 07:05:28;;;;;;;64.10;29.77;;;6.50;99.90;;;;;;4971198;28;20291;-68
2022/03/28 07:07:56;;;;;;;68.32;31.27;;;6.60;99.90;;;;;;4952619;28;20051;-68
2022/03/28 07:10:23;;;;;;;59.42;28.63;;;6.70;99.90;;;;;;4953270;28;20128;-68
2022/03/28 07:12:54;;;;;;;60.88;29.10;;;6.90;99.90;;;;;;4972755;28;20064;-68
2022/03/28 07:15:21;;;;;;;54.03;27.15;;;7.00;99.90;;;;;;4955120;28;20440;-68
2022/03/28 07:18:02;;;;;;;53.92;27.00;;;7.20;99.90;;;;;;4953736;28;20062;-68
2022/03/28 07:20:31;;;;;;;55.13;27.55;;;7.30;99.90;;;;;;4950606;28;20143;-68
2022/03/28 07:22:59;;;;;;;49.08;26.75;;;7.40;99.90;;;;;;4952157;28;20058;-67
2022/03/28 07:25:28;;;;;;;51.28;26.83;;;7.70;99.90;;;;;;4954290;28;20066;-69
2022/03/28 07:27:55;;;;;;;38.88;23.65;;;8.00;99.90;;;;;;4972147;28;20054;-68
2022/03/28 07:30:23;;;;;;;51.58;29.70;;;8.30;99.90;;;;;;4967719;28;20046;-68
2022/03/28 07:32:53;;;;;;;39.95;26.80;;;8.70;99.90;;;;;;4976697;28;20108;-68
2022/03/28 07:35:20;;;;;;;39.35;26.55;;;9.10;99.90;;;;;;4976731;28;20121;-68
2022/03/28 07:37:47;;;;;;;36.83;26.23;;;9.60;99.90;;;;;;4956084;28;20057;-70
2022/03/28 07:40:15;;;;;;;31.88;25.73;;;10.10;99.90;;;;;;4957055;28;20054;-68
2022/03/28 07:42:43;;;;;;;33.88;25.70;;;10.60;99.90;;;;;;4975915;28;20042;-68
2022/03/28 07:45:10;;;;;;;32.45;26.95;;;11.10;99.90;;;;;;4977333;28;20058;-69
2022/03/28 07:47:38;;;;;;;28.48;25.25;;;11.40;99.90;;;;;;4956130;28;20087;-68
2022/03/28 07:50:06;;;;;;;29.75;25.02;;;11.80;99.90;;;;;;4975211;28;20054;-69
2022/03/28 07:52:34;;;;;;;30.08;27.10;;;12.10;99.90;;;;;;4976459;28;20632;-68
2022/03/28 07:55:01;;;;;;;28.10;25.10;;;12.40;99.90;;;;;;4959510;28;20054;-69
2022/03/28 07:57:28;;;;;;;28.77;25.73;;;12.60;99.90;;;;;;4975730;28;20118;-68
2022/03/28 07:59:55;;;;;;;29.27;26.20;;;12.70;99.90;;;;;;4977709;28;20620;-69
2022/03/28 08:02:42;;;;;;;28.73;25.92;;;12.90;99.90;;;;;;4957184;28;20080;-68
2022/03/28 08:05:10;;;;;;;29.88;27.08;;;13.30;99.90;;;;;;4957632;28;20577;-67
2022/03/28 08:07:38;;;;;;;30.67;27.67;;;13.40;99.90;;;;;;4958462;28;20056;-69
2022/03/28 08:10:06;;;;;;;30.55;27.58;;;13.60;99.90;;;;;;4960897;28;20863;-67
2022/03/28 08:12:33;;;;;;;31.10;28.20;;;13.70;99.90;;;;;;4960273;28;20050;-66
2022/03/28 08:15:00;;;;;;;30.73;27.92;;;13.70;99.90;;;;;;4977449;28;20058;-68
2022/03/28 08:17:27;;;;;;;32.53;28.88;;;13.70;99.90;;;;;;4963153;28;20046;-68
2022/03/28 08:19:54;;;;;;;29.45;26.80;;;13.60;99.90;;;;;;4957949;28;20050;-67
2022/03/28 08:22:21;;;;;;;29.58;26.75;;;13.90;99.90;;;;;;4957792;28;20066;-67
2022/03/28 08:24:48;;;;;;;32.88;29.67;;;14.00;99.90;;;;;;4972323;28;20058;-67
2022/03/28 08:27:15;;;;;;;31.60;28.35;;;14.30;99.90;;;;;;4954644;28;20046;-68
2022/03/28 08:29:42;;;;;;;33.30;29.98;;;14.30;99.90;;;;;;4957145;28;20124;-68
2022/03/28 08:32:09;;;;;;;32.88;29.52;;;14.30;99.90;;;;;;4958133;28;20057;-68
2022/03/28 08:34:37;;;;;;;32.88;29.60;;;14.40;99.90;;;;;;4975411;28;20054;-67
2022/03/28 08:37:04;;;;;;;34.90;31.45;;;14.40;99.90;;;;;;4969608;28;20050;-68
2022/03/28 08:39:31;;;;;;;33.67;30.27;;;14.50;99.90;;;;;;4936046;28;20759;-68
2022/03/28 08:41:58;;;;;;;34.08;30.70;;;14.70;99.90;;;;;;4971008;28;20121;-70
2022/03/28 08:44:26;;;;;;;34.25;31.05;;;14.80;99.90;;;;;;4977637;28;20046;-68
2022/03/28 08:46:55;;;;;;;35.00;31.75;;;14.60;99.90;;;;;;4973052;28;20042;-68
2022/03/28 08:49:23;;;;;;;35.47;32.03;;;14.80;99.90;;;;;;4974957;28;20562;-68
2022/03/28 08:51:51;;;;;;;36.92;33.30;;;14.80;99.90;;;;;;4955748;28;20084;-68
2022/03/28 08:54:19;;;;;;;36.80;33.30;;;14.90;99.90;;;;;;4953561;28;20073;-69
2022/03/28 08:56:47;;;;;;;36.15;32.72;;;14.80;99.90;;;;;;4972768;28;20056;-67
2022/03/28 08:59:14;;;;;;;41.30;34.88;;;15.00;99.90;;;;;;4972066;28;20487;-66
2022/03/28 09:01:44;;;;;;;38.50;34.75;;;15.10;99.90;;;;;;4953846;28;20113;-68
2022/03/28 09:04:11;;;;;;;38.58;34.58;;;15.20;99.90;;;;;;4956495;28;20057;-68
2022/03/28 09:06:42;;;;;;;39.67;35.42;;;15.40;99.90;;;;;;4958451;28;20088;-69
2022/03/28 09:09:16;;;;;;;39.95;36.08;;;15.40;99.90;;;;;;4972198;28;20161;-68
2022/03/28 09:11:45;;;;;;;39.55;35.53;;;15.50;99.90;;;;;;4951150;28;20049;-68
2022/03/28 09:14:22;;;;;;;38.30;34.60;;;15.40;99.90;;;;;;4957713;28;20053;-67
2022/03/28 09:17:04;;;;;;;38.15;34.60;;;15.40;99.90;;;;;;4973908;28;20687;-70
2022/03/28 09:19:43;;;;;;;38.95;35.50;;;15.40;99.90;;;;;;4955038;28;20050;-67
2022/03/28 09:22:20;;;;;;;39.58;35.58;;;15.50;99.90;;;;;;4955132;28;20050;-68
2022/03/28 09:24:48;;;;;;;40.17;36.13;;;15.60;99.90;;;;;;4969181;28;20042;-69
2022/03/28 09:27:17;;;;;;;38.80;35.40;;;15.70;99.90;;;;;;4945246;28;20244;-68
2022/03/28 09:29:57;;;;;;;39.90;35.97;;;15.70;99.90;;;;;;4970472;28;20392;-68
2022/03/28 09:32:29;;;;;;;40.47;36.53;;;15.90;99.90;;;;;;4972198;28;20042;-68
2022/03/28 09:35:19;;;;;;;39.33;35.70;;;15.90;99.90;;;;;;4974181;28;20057;-67
2022/03/28 09:38:04;;;;;;;40.28;36.47;;;15.80;99.90;;;;;;4955473;28;20058;-68
2022/03/28 09:40:44;;;;;;;39.78;35.85;;;15.50;99.90;;;;;;4957400;28;20054;-68
2022/03/28 09:43:21;;;;;;;40.92;36.83;;;15.60;99.90;;;;;;4970941;28;20059;-69
2022/03/28 09:45:56;;;;;;;40.10;36.20;;;15.70;99.90;;;;;;4953598;28;20051;-71
2022/03/28 09:48:26;;;;;;;38.10;34.50;;;15.90;99.90;;;;;;4955130;28;20073;-68
2022/03/28 09:51:01;;;;;;;41.50;36.65;;;16.00;99.90;;;;;;4955604;28;20042;-68
2022/03/28 09:53:31;;;;;;;39.58;35.95;;;16.20;99.90;;;;;;4968266;28;20047;-69
2022/03/28 09:56:04;;;;;;;40.72;36.55;;;16.20;99.90;;;;;;4965792;28;20070;-69
2022/03/28 09:58:38;;;;;;;39.60;35.65;;;16.20;99.90;;;;;;4959730;28;20050;-68
2022/03/28 10:01:17;;;;;;;38.90;35.25;;;16.40;99.90;;;;;;4969899;28;20082;-67
2022/03/28 10:03:50;;;;;;;40.45;36.40;;;16.40;99.90;;;;;;4971492;28;20544;-69
2022/03/28 10:06:19;;;;;;;39.28;35.40;;;16.10;99.90;;;;;;4947974;28;20404;-70
2022/03/28 10:08:47;;;;;;;40.05;36.22;;;16.10;99.90;;;;;;4945660;28;20042;-69
2022/03/28 10:11:16;;;;;;;39.90;35.88;;;16.30;99.90;;;;;;4949555;28;20058;-69
2022/03/28 10:13:43;;;;;;;41.38;37.30;;;16.20;99.90;;;;;;4972365;28;20081;-69
2022/03/28 10:16:11;;;;;;;41.35;37.33;;;16.20;99.90;;;;;;4946382;28;20113;-68
2022/03/28 10:18:41;;;;;;;41.83;37.70;;;16.30;99.90;;;;;;4951660;28;20442;-69
2022/03/28 10:21:21;;;;;;;40.38;36.53;;;16.30;99.90;;;;;;4971630;28;20817;-69
2022/03/28 10:24:07;;;;;;;41.47;37.53;;;16.60;99.90;;;;;;4966019;28;20765;-70
2022/03/28 10:26:36;;;;;;;41.65;37.55;;;16.90;99.90;;;;;;4954740;28;20351;-71
2022/03/28 10:29:09;;;;;;;41.30;37.20;;;17.20;99.90;;;;;;4970513;28;20085;-69
2022/03/28 10:31:56;;;;;;;43.00;38.67;;;17.10;99.90;;;;;;4955624;28;20133;-69
2022/03/28 10:34:56;;;;;;;42.88;38.55;;;17.20;99.90;;;;;;4972156;28;20146;-67
2022/03/28 10:37:26;;;;;;;42.50;38.55;;;16.80;99.90;;;;;;4953153;28;20162;-70
2022/03/28 10:40:26;;;;;;;43.83;39.47;;;16.90;99.90;;;;;;4949133;28;20050;-68
2022/03/28 10:43:21;;;;;;;44.63;39.92;;;16.60;99.90;;;;;;4954207;28;20042;-69
2022/03/28 10:46:09;;;;;;;46.73;41.67;;;16.50;99.90;;;;;;4956386;28;20049;-71
2022/03/28 10:48:44;;;;;;;44.45;39.88;;;16.50;99.90;;;;;;4949220;28;20101;-70
2022/03/28 10:51:15;;;;;;;46.40;41.67;;;16.90;99.90;;;;;;4953881;28;20545;-71
2022/03/28 10:53:46;;;;;;;47.00;42.13;;;17.30;99.90;;;;;;4959077;28;20574;-70
2022/03/28 10:56:24;;;;;;;47.30;42.45;;;17.40;99.90;;;;;;4968827;28;20058;-70
2022/03/28 10:58:54;;;;;;;46.20;41.15;;;17.40;99.90;;;;;;4969505;28;20054;-71
2022/03/28 11:01:42;;;;;;;49.10;44.00;;;17.20;99.90;;;;;;4938584;28;20100;-70
2022/03/28 11:04:12;;;;;;;47.08;42.30;;;16.70;99.90;;;;;;4968704;28;20054;-70
2022/03/28 11:06:59;;;;;;;51.38;45.80;;;16.70;99.90;;;;;;4959520;28;20046;-70
2022/03/28 11:09:42;;;;;;;49.13;44.03;;;16.80;99.90;;;;;;4934905;28;20047;-69
2022/03/28 11:12:40;;;;;;;48.53;43.47;;;17.00;99.90;;;;;;4951679;28;20141;-70
2022/03/28 11:15:15;;;;;;;46.17;41.30;;;17.10;99.90;;;;;;4955194;28;20269;-69
2022/03/28 11:17:57;;;;;;;49.58;43.92;;;17.00;99.90;;;;;;4972634;28;20706;-66
2022/03/28 11:20:42;;;;;;;50.88;45.25;;;17.20;99.90;;;;;;4954825;28;20081;-70
2022/03/28 11:23:12;;;;;;;48.35;43.20;;;17.40;99.90;;;;;;4956968;28;20533;-71
2022/03/28 11:25:38;;;;;;;47.03;42.05;;;17.50;99.90;;;;;;4971560;28;20035;-70
2022/03/28 11:28:13;;;;;;;51.53;44.83;;;17.30;99.90;;;;;;4966007;28;20434;-70
2022/03/28 11:30:52;;;;;;;49.50;44.22;;;17.20;99.90;;;;;;4937163;28;20267;-71
2022/03/28 11:33:27;;;;;;;47.03;42.25;;;17.30;99.90;;;;;;4953725;28;20050;-70
2022/03/28 11:35:59;;;;;;;48.92;43.42;;;17.60;99.90;;;;;;4954339;28;20042;-69
2022/03/28 11:38:28;;;;;;;50.00;44.60;;;17.60;99.90;;;;;;4936536;28;20050;-69
2022/03/28 11:40:57;;;;;;;51.58;45.80;;;17.50;99.90;;;;;;4968023;28;20050;-70
2022/03/28 11:43:38;;;;;;;51.15;45.65;;;17.50;99.90;;;;;;4945144;28;20456;-70
2022/03/28 11:46:32;;;;;;;49.45;43.58;;;17.60;99.90;;;;;;4954144;28;20144;-68
2022/03/28 11:49:09;;;;;;;49.60;44.23;;;17.70;99.90;;;;;;4951128;28;20057;-69
2022/03/28 11:51:40;;;;;;;49.72;44.30;;;17.60;99.90;;;;;;4953185;28;20930;-69
2022/03/28 11:54:09;;;;;;;48.50;42.40;;;17.70;99.90;;;;;;4963337;28;20050;-69
2022/03/28 11:59:38;;;;;;;50.92;44.50;;;18.00;99.90;;;;;;4971738;28;20508;-69
2022/03/28 12:02:08;;;;;;;46.25;41.45;;;18.00;99.90;;;;;;4920105;28;20067;-69
2022/03/28 12:04:46;;;;;;;52.63;44.08;;;17.80;99.90;;;;;;4937551;28;20062;-69
2022/03/28 12:07:13;;;;;;;47.38;42.50;;;17.80;99.90;;;;;;4936122;28;20058;-70
2022/03/28 12:09:41;;;;;;;47.15;42.53;;;17.60;99.90;;;;;;4952716;28;20295;-70
2022/03/28 12:12:09;;;;;;;50.40;44.75;;;17.70;99.90;;;;;;4940145;28;20766;-69
2022/03/28 12:14:42;;;;;;;48.05;42.80;;;17.60;99.90;;;;;;4955464;28;20459;-69
2022/03/28 12:17:10;;;;;;;48.38;42.88;;;17.70;99.90;;;;;;4957385;28;20054;-68
2022/03/28 12:19:37;;;;;;;46.33;41.50;;;17.80;99.90;;;;;;4959590;28;20077;-71
2022/03/28 12:22:18;;;;;;;48.60;43.30;;;18.00;99.90;;;;;;4960228;28;20055;-69
2022/03/28 12:24:52;;;;;;;46.50;41.67;;;18.10;99.90;;;;;;4954147;28;20727;-70
2022/03/28 12:27:20;;;;;;;46.88;41.92;;;17.90;99.90;;;;;;4965642;28;20598;-68
2022/03/28 12:29:50;;;;;;;50.47;43.85;;;17.90;99.90;;;;;;4976154;28;20152;-70
2022/03/28 12:32:17;;;;;;;47.83;42.88;;;17.80;99.90;;;;;;4962814;28;20669;-70
2022/03/28 12:34:44;;;;;;;47.78;42.67;;;17.80;99.90;;;;;;4957328;28;20058;-69
2022/03/28 12:37:15;;;;;;;47.65;42.55;;;18.00;99.90;;;;;;4956026;28;20043;-69
2022/03/28 12:39:46;;;;;;;48.00;42.05;;;17.80;99.90;;;;;;4956792;28;20046;-69
2022/03/28 12:42:26;;;;;;;51.50;45.03;;;17.50;99.90;;;;;;4952164;28;20054;-70
2022/03/28 12:44:54;;;;;;;49.38;44.17;;;17.50;99.90;;;;;;4976575;28;20141;-69
2022/03/28 12:47:29;;;;;;;49.63;43.90;;;17.70;99.90;;;;;;4975561;28;20046;-70
2022/03/28 12:49:56;;;;;;;50.33;43.95;;;18.00;99.90;;;;;;4976141;28;20088;-67